sensor_id;sensor_type;location;lat;lon;timestamp;temperature;humidity
14101;DHT22;7127;49.372;8.166;2023-05-28T00:00:47;19.80;36.40
14101;DHT22;7127;49.372;8.166;2023-05-28T00:03:14;19.80;36.40
14101;DHT22;7127;49.372;8.166;2023-05-28T00:05:43;19.80;36.50
14101;DHT22;7127;49.372;8.166;2023-05-28T00:08:10;19.70;36.60
14101;DHT22;7127;49.372;8.166;2023-05-28T00:10:39;19.70;36.70
14101;DHT22;7127;49.372;8.166;2023-05-28T00:13:08;19.60;36.70
14101;DHT22;7127;49.372;8.166;2023-05-28T00:15:35;19.60;36.80
14101;DHT22;7127;49.372;8.166;2023-05-28T00:18:02;19.70;37.00
14101;DHT22;7127;49.372;8.166;2023-05-28T00:20:30;19.50;37.00
14101;DHT22;7127;49.372;8.166;2023-05-28T00:22:57;19.40;37.00
14101;DHT22;7127;49.372;8.166;2023-05-28T00:25:24;19.40;37.00
14101;DHT22;7127;49.372;8.166;2023-05-28T00:27:51;19.40;37.10
14101;DHT22;7127;49.372;8.166;2023-05-28T00:30:19;19.40;37.10
14101;DHT22;7127;49.372;8.166;2023-05-28T00:32:49;19.30;37.20
14101;DHT22;7127;49.372;8.166;2023-05-28T00:35:16;19.30;37.20
14101;DHT22;7127;49.372;8.166;2023-05-28T00:37:43;19.20;37.30
14101;DHT22;7127;49.372;8.166;2023-05-28T00:40:10;19.20;37.30
14101;DHT22;7127;49.372;8.166;2023-05-28T00:42:42;19.20;37.40
14101;DHT22;7127;49.372;8.166;2023-05-28T00:45:10;19.10;37.50
14101;DHT22;7127;49.372;8.166;2023-05-28T00:47:39;19.10;37.50
14101;DHT22;7127;49.372;8.166;2023-05-28T00:50:07;19.00;37.60
14101;DHT22;7127;49.372;8.166;2023-05-28T00:52:35;19.00;37.70
14101;DHT22;7127;49.372;8.166;2023-05-28T00:55:05;19.00;37.70
14101;DHT22;7127;49.372;8.166;2023-05-28T00:57:39;19.00;37.80
14101;DHT22;7127;49.372;8.166;2023-05-28T01:00:07;19.00;37.90
14101;DHT22;7127;49.372;8.166;2023-05-28T01:02:35;18.90;37.90
14101;DHT22;7127;49.372;8.166;2023-05-28T01:05:04;18.90;38.10
14101;DHT22;7127;49.372;8.166;2023-05-28T01:07:32;18.80;38.00
14101;DHT22;7127;49.372;8.166;2023-05-28T01:09:59;18.80;38.00
14101;DHT22;7127;49.372;8.166;2023-05-28T01:12:26;18.70;38.10
14101;DHT22;7127;49.372;8.166;2023-05-28T01:14:54;18.70;38.20
14101;DHT22;7127;49.372;8.166;2023-05-28T01:17:21;18.70;38.30
14101;DHT22;7127;49.372;8.166;2023-05-28T01:19:48;18.60;38.30
14101;DHT22;7127;49.372;8.166;2023-05-28T01:22:18;18.60;38.40
14101;DHT22;7127;49.372;8.166;2023-05-28T01:24:50;18.60;38.50
14101;DHT22;7127;49.372;8.166;2023-05-28T01:27:18;18.50;38.50
14101;DHT22;7127;49.372;8.166;2023-05-28T01:29:45;18.50;38.50
14101;DHT22;7127;49.372;8.166;2023-05-28T01:32:12;18.50;38.50
14101;DHT22;7127;49.372;8.166;2023-05-28T01:34:40;18.40;38.60
14101;DHT22;7127;49.372;8.166;2023-05-28T01:37:08;18.40;38.70
14101;DHT22;7127;49.372;8.166;2023-05-28T01:39:39;18.40;38.70
14101;DHT22;7127;49.372;8.166;2023-05-28T01:42:09;18.30;38.80
14101;DHT22;7127;49.372;8.166;2023-05-28T01:44:37;18.40;39.00
14101;DHT22;7127;49.372;8.166;2023-05-28T01:47:05;18.30;39.00
14101;DHT22;7127;49.372;8.166;2023-05-28T01:49:35;18.30;39.00
14101;DHT22;7127;49.372;8.166;2023-05-28T01:52:02;18.30;39.00
14101;DHT22;7127;49.372;8.166;2023-05-28T01:54:30;18.30;39.00
14101;DHT22;7127;49.372;8.166;2023-05-28T01:56:57;18.20;39.10
14101;DHT22;7127;49.372;8.166;2023-05-28T01:59:25;18.10;39.10
14101;DHT22;7127;49.372;8.166;2023-05-28T02:01:52;18.20;39.20
14101;DHT22;7127;49.372;8.166;2023-05-28T02:04:20;18.20;39.40
14101;DHT22;7127;49.372;8.166;2023-05-28T02:06:47;18.10;39.30
14101;DHT22;7127;49.372;8.166;2023-05-28T02:09:15;18.10;39.40
14101;DHT22;7127;49.372;8.166;2023-05-28T02:11:43;18.10;39.50
14101;DHT22;7127;49.372;8.166;2023-05-28T02:14:10;18.00;39.50
14101;DHT22;7127;49.372;8.166;2023-05-28T02:16:41;18.00;39.60
14101;DHT22;7127;49.372;8.166;2023-05-28T02:19:10;18.00;39.70
14101;DHT22;7127;49.372;8.166;2023-05-28T02:21:37;17.90;39.60
14101;DHT22;7127;49.372;8.166;2023-05-28T02:24:06;17.90;39.70
14101;DHT22;7127;49.372;8.166;2023-05-28T02:26:34;17.80;39.80
14101;DHT22;7127;49.372;8.166;2023-05-28T02:29:01;17.80;39.80
14101;DHT22;7127;49.372;8.166;2023-05-28T02:31:28;17.80;40.00
14101;DHT22;7127;49.372;8.166;2023-05-28T02:33:57;17.80;40.00
14101;DHT22;7127;49.372;8.166;2023-05-28T02:36:24;17.70;40.00
14101;DHT22;7127;49.372;8.166;2023-05-28T02:38:51;17.70;40.10
14101;DHT22;7127;49.372;8.166;2023-05-28T02:41:18;17.70;40.20
14101;DHT22;7127;49.372;8.166;2023-05-28T02:43:46;17.70;40.20
14101;DHT22;7127;49.372;8.166;2023-05-28T02:46:13;17.60;40.30
14101;DHT22;7127;49.372;8.166;2023-05-28T02:48:40;17.60;40.40
14101;DHT22;7127;49.372;8.166;2023-05-28T02:51:09;17.60;40.30
14101;DHT22;7127;49.372;8.166;2023-05-28T02:53:37;17.60;40.50
14101;DHT22;7127;49.372;8.166;2023-05-28T02:56:04;17.50;40.40
14101;DHT22;7127;49.372;8.166;2023-05-28T02:58:31;17.50;40.40
14101;DHT22;7127;49.372;8.166;2023-05-28T03:00:59;17.50;40.60
14101;DHT22;7127;49.372;8.166;2023-05-28T03:03:26;17.50;40.80
14101;DHT22;7127;49.372;8.166;2023-05-28T03:05:54;17.30;40.60
14101;DHT22;7127;49.372;8.166;2023-05-28T03:08:23;17.40;40.70
14101;DHT22;7127;49.372;8.166;2023-05-28T03:10:50;17.30;40.70
14101;DHT22;7127;49.372;8.166;2023-05-28T03:13:17;17.30;40.80
14101;DHT22;7127;49.372;8.166;2023-05-28T03:15:44;17.30;41.00
14101;DHT22;7127;49.372;8.166;2023-05-28T03:18:12;17.30;41.00
14101;DHT22;7127;49.372;8.166;2023-05-28T03:20:39;17.30;41.00
14101;DHT22;7127;49.372;8.166;2023-05-28T03:23:06;17.20;41.10
14101;DHT22;7127;49.372;8.166;2023-05-28T03:25:34;17.20;41.00
14101;DHT22;7127;49.372;8.166;2023-05-28T03:28:01;17.30;41.20
14101;DHT22;7127;49.372;8.166;2023-05-28T03:30:28;17.20;41.20
14101;DHT22;7127;49.372;8.166;2023-05-28T03:32:56;17.20;41.20
14101;DHT22;7127;49.372;8.166;2023-05-28T03:35:23;17.20;41.30
14101;DHT22;7127;49.372;8.166;2023-05-28T03:37:50;17.20;41.30
14101;DHT22;7127;49.372;8.166;2023-05-28T03:40:18;17.10;41.40
14101;DHT22;7127;49.372;8.166;2023-05-28T03:42:46;17.00;41.40
14101;DHT22;7127;49.372;8.166;2023-05-28T03:45:14;17.10;41.50
14101;DHT22;7127;49.372;8.166;2023-05-28T03:47:42;17.10;41.50
14101;DHT22;7127;49.372;8.166;2023-05-28T03:50:10;17.10;41.60
14101;DHT22;7127;49.372;8.166;2023-05-28T03:52:38;17.00;41.60
14101;DHT22;7127;49.372;8.166;2023-05-28T03:55:05;17.20;41.70
14101;DHT22;7127;49.372;8.166;2023-05-28T03:57:33;17.00;41.70
14101;DHT22;7127;49.372;8.166;2023-05-28T04:00:02;17.00;41.70
14101;DHT22;7127;49.372;8.166;2023-05-28T04:02:32;17.00;41.80
14101;DHT22;7127;49.372;8.166;2023-05-28T04:05:00;17.00;41.90
14101;DHT22;7127;49.372;8.166;2023-05-28T04:07:27;17.00;42.00
14101;DHT22;7127;49.372;8.166;2023-05-28T04:09:54;17.00;42.00
14101;DHT22;7127;49.372;8.166;2023-05-28T04:12:22;17.00;42.20
14101;DHT22;7127;49.372;8.166;2023-05-28T04:14:49;17.00;42.10
14101;DHT22;7127;49.372;8.166;2023-05-28T04:17:17;17.00;42.10
14101;DHT22;7127;49.372;8.166;2023-05-28T04:19:46;17.00;42.10
14101;DHT22;7127;49.372;8.166;2023-05-28T04:22:14;17.00;42.30
14101;DHT22;7127;49.372;8.166;2023-05-28T04:24:41;17.00;42.20
14101;DHT22;7127;49.372;8.166;2023-05-28T04:27:08;17.00;42.30
14101;DHT22;7127;49.372;8.166;2023-05-28T04:29:35;17.10;42.30
14101;DHT22;7127;49.372;8.166;2023-05-28T04:32:05;17.00;42.40
14101;DHT22;7127;49.372;8.166;2023-05-28T04:34:37;17.00;42.50
14101;DHT22;7127;49.372;8.166;2023-05-28T04:37:06;17.10;42.60
14101;DHT22;7127;49.372;8.166;2023-05-28T04:39:33;17.10;42.60
14101;DHT22;7127;49.372;8.166;2023-05-28T04:42:00;17.10;42.60
14101;DHT22;7127;49.372;8.166;2023-05-28T04:44:28;17.10;42.70
14101;DHT22;7127;49.372;8.166;2023-05-28T04:46:56;17.10;42.70
14101;DHT22;7127;49.372;8.166;2023-05-28T04:49:24;17.00;42.70
14101;DHT22;7127;49.372;8.166;2023-05-28T04:51:52;17.20;42.80
14101;DHT22;7127;49.372;8.166;2023-05-28T04:54:20;17.30;42.80
14101;DHT22;7127;49.372;8.166;2023-05-28T04:56:47;17.30;43.00
14101;DHT22;7127;49.372;8.166;2023-05-28T04:59:14;17.30;43.00
14101;DHT22;7127;49.372;8.166;2023-05-28T05:01:41;17.30;43.00
14101;DHT22;7127;49.372;8.166;2023-05-28T05:04:08;17.40;43.00
14101;DHT22;7127;49.372;8.166;2023-05-28T05:06:35;17.40;43.00
14101;DHT22;7127;49.372;8.166;2023-05-28T05:09:03;17.40;43.10
14101;DHT22;7127;49.372;8.166;2023-05-28T05:11:30;17.50;43.20
14101;DHT22;7127;49.372;8.166;2023-05-28T05:13:57;17.50;43.10
14101;DHT22;7127;49.372;8.166;2023-05-28T05:16:24;17.60;43.10
14101;DHT22;7127;49.372;8.166;2023-05-28T05:18:52;17.60;43.10
14101;DHT22;7127;49.372;8.166;2023-05-28T05:21:20;17.60;43.10
14101;DHT22;7127;49.372;8.166;2023-05-28T05:23:47;17.70;43.20
14101;DHT22;7127;49.372;8.166;2023-05-28T05:26:17;17.70;43.30
14101;DHT22;7127;49.372;8.166;2023-05-28T05:28:45;17.80;43.30
14101;DHT22;7127;49.372;8.166;2023-05-28T05:31:12;17.80;43.30
14101;DHT22;7127;49.372;8.166;2023-05-28T05:33:39;18.00;43.40
14101;DHT22;7127;49.372;8.166;2023-05-28T05:36:07;17.90;43.30
14101;DHT22;7127;49.372;8.166;2023-05-28T05:38:35;18.00;43.40
14101;DHT22;7127;49.372;8.166;2023-05-28T05:41:02;18.00;43.30
14101;DHT22;7127;49.372;8.166;2023-05-28T05:43:30;18.10;43.30
14101;DHT22;7127;49.372;8.166;2023-05-28T05:45:57;18.10;43.30
14101;DHT22;7127;49.372;8.166;2023-05-28T05:48:30;18.20;43.50
14101;DHT22;7127;49.372;8.166;2023-05-28T05:50:57;18.30;43.70
14101;DHT22;7127;49.372;8.166;2023-05-28T05:53:26;18.40;43.70
14101;DHT22;7127;49.372;8.166;2023-05-28T05:55:53;18.40;43.70
14101;DHT22;7127;49.372;8.166;2023-05-28T05:58:20;18.50;43.80
14101;DHT22;7127;49.372;8.166;2023-05-28T06:00:49;18.50;43.70
14101;DHT22;7127;49.372;8.166;2023-05-28T06:03:16;18.70;43.80
14101;DHT22;7127;49.372;8.166;2023-05-28T06:05:43;18.80;43.70
14101;DHT22;7127;49.372;8.166;2023-05-28T06:08:10;18.80;43.60
14101;DHT22;7127;49.372;8.166;2023-05-28T06:10:37;18.80;43.60
14101;DHT22;7127;49.372;8.166;2023-05-28T06:13:04;19.00;43.80
14101;DHT22;7127;49.372;8.166;2023-05-28T06:15:31;19.00;43.70
14101;DHT22;7127;49.372;8.166;2023-05-28T06:17:59;19.10;43.70
14101;DHT22;7127;49.372;8.166;2023-05-28T06:20:26;19.20;43.70
14101;DHT22;7127;49.372;8.166;2023-05-28T06:22:53;19.20;43.70
14101;DHT22;7127;49.372;8.166;2023-05-28T06:25:21;19.40;43.70
14101;DHT22;7127;49.372;8.166;2023-05-28T06:27:47;19.40;43.70
14101;DHT22;7127;49.372;8.166;2023-05-28T06:30:14;19.50;43.60
14101;DHT22;7127;49.372;8.166;2023-05-28T06:32:41;19.50;43.40
14101;DHT22;7127;49.372;8.166;2023-05-28T06:35:10;19.70;43.40
14101;DHT22;7127;49.372;8.166;2023-05-28T06:37:36;19.70;43.40
14101;DHT22;7127;49.372;8.166;2023-05-28T06:40:04;19.80;43.50
14101;DHT22;7127;49.372;8.166;2023-05-28T06:42:32;19.80;43.30
14101;DHT22;7127;49.372;8.166;2023-05-28T06:44:59;19.90;43.20
14101;DHT22;7127;49.372;8.166;2023-05-28T06:47:26;20.00;43.20
14101;DHT22;7127;49.372;8.166;2023-05-28T06:49:53;20.00;43.10
14101;DHT22;7127;49.372;8.166;2023-05-28T06:52:21;20.30;43.20
14101;DHT22;7127;49.372;8.166;2023-05-28T06:54:49;20.20;43.00
14101;DHT22;7127;49.372;8.166;2023-05-28T06:57:16;20.20;43.00
14101;DHT22;7127;49.372;8.166;2023-05-28T06:59:42;20.30;43.00
14101;DHT22;7127;49.372;8.166;2023-05-28T07:02:09;20.40;43.10
14101;DHT22;7127;49.372;8.166;2023-05-28T07:04:36;20.50;43.10
14101;DHT22;7127;49.372;8.166;2023-05-28T07:07:03;20.50;43.10
14101;DHT22;7127;49.372;8.166;2023-05-28T07:09:32;20.60;43.00
14101;DHT22;7127;49.372;8.166;2023-05-28T07:11:58;20.60;42.80
14101;DHT22;7127;49.372;8.166;2023-05-28T07:14:26;20.70;42.80
14101;DHT22;7127;49.372;8.166;2023-05-28T07:16:52;20.80;42.80
14101;DHT22;7127;49.372;8.166;2023-05-28T07:19:19;20.90;42.80
14101;DHT22;7127;49.372;8.166;2023-05-28T07:21:46;20.90;42.60
14101;DHT22;7127;49.372;8.166;2023-05-28T07:24:13;21.00;42.60
14101;DHT22;7127;49.372;8.166;2023-05-28T07:26:41;21.10;42.60
14101;DHT22;7127;49.372;8.166;2023-05-28T07:29:09;21.10;42.40
14101;DHT22;7127;49.372;8.166;2023-05-28T07:31:38;21.20;42.30
14101;DHT22;7127;49.372;8.166;2023-05-28T07:34:05;21.20;42.20
14101;DHT22;7127;49.372;8.166;2023-05-28T07:36:32;21.30;42.20
14101;DHT22;7127;49.372;8.166;2023-05-28T07:38:59;21.30;42.00
14101;DHT22;7127;49.372;8.166;2023-05-28T07:41:26;21.30;42.00
14101;DHT22;7127;49.372;8.166;2023-05-28T07:43:55;21.50;42.10
14101;DHT22;7127;49.372;8.166;2023-05-28T07:46:21;21.60;42.10
14101;DHT22;7127;49.372;8.166;2023-05-28T07:48:49;21.70;42.00
14101;DHT22;7127;49.372;8.166;2023-05-28T07:51:16;21.70;41.80
14101;DHT22;7127;49.372;8.166;2023-05-28T07:53:43;21.70;41.70
14101;DHT22;7127;49.372;8.166;2023-05-28T07:56:11;21.90;41.80
14101;DHT22;7127;49.372;8.166;2023-05-28T07:58:38;21.90;41.70
14101;DHT22;7127;49.372;8.166;2023-05-28T08:01:09;22.00;41.70
14101;DHT22;7127;49.372;8.166;2023-05-28T08:03:36;22.00;41.40
14101;DHT22;7127;49.372;8.166;2023-05-28T08:06:03;22.10;41.40
14101;DHT22;7127;49.372;8.166;2023-05-28T08:08:30;22.20;41.40
14101;DHT22;7127;49.372;8.166;2023-05-28T08:10:57;22.10;41.20
14101;DHT22;7127;49.372;8.166;2023-05-28T08:13:24;22.30;41.50
14101;DHT22;7127;49.372;8.166;2023-05-28T08:15:51;22.30;41.10
14101;DHT22;7127;49.372;8.166;2023-05-28T08:18:19;22.40;41.20
14101;DHT22;7127;49.372;8.166;2023-05-28T08:20:46;22.40;41.10
14101;DHT22;7127;49.372;8.166;2023-05-28T08:23:13;22.50;40.90
14101;DHT22;7127;49.372;8.166;2023-05-28T08:25:40;22.60;40.90
14101;DHT22;7127;49.372;8.166;2023-05-28T08:28:07;22.70;40.90
14101;DHT22;7127;49.372;8.166;2023-05-28T08:30:35;22.70;40.80
14101;DHT22;7127;49.372;8.166;2023-05-28T08:33:02;22.70;40.60
14101;DHT22;7127;49.372;8.166;2023-05-28T08:35:30;22.80;40.50
14101;DHT22;7127;49.372;8.166;2023-05-28T08:37:57;22.80;40.30
14101;DHT22;7127;49.372;8.166;2023-05-28T08:40:24;22.90;40.10
14101;DHT22;7127;49.372;8.166;2023-05-28T08:42:52;22.90;39.80
14101;DHT22;7127;49.372;8.166;2023-05-28T08:45:19;22.90;39.90
14101;DHT22;7127;49.372;8.166;2023-05-28T08:47:49;23.00;40.10
14101;DHT22;7127;49.372;8.166;2023-05-28T08:50:18;23.10;40.00
14101;DHT22;7127;49.372;8.166;2023-05-28T08:52:48;23.10;39.80
14101;DHT22;7127;49.372;8.166;2023-05-28T08:55:15;23.20;39.70
14101;DHT22;7127;49.372;8.166;2023-05-28T08:57:44;23.30;39.70
14101;DHT22;7127;49.372;8.166;2023-05-28T09:00:12;23.40;39.70
14101;DHT22;7127;49.372;8.166;2023-05-28T09:02:40;23.40;39.70
14101;DHT22;7127;49.372;8.166;2023-05-28T09:05:10;23.50;39.60
14101;DHT22;7127;49.372;8.166;2023-05-28T09:07:37;23.60;39.40
14101;DHT22;7127;49.372;8.166;2023-05-28T09:10:10;23.70;39.40
14101;DHT22;7127;49.372;8.166;2023-05-28T09:12:38;23.70;39.30
14101;DHT22;7127;49.372;8.166;2023-05-28T09:15:08;23.70;39.10
14101;DHT22;7127;49.372;8.166;2023-05-28T09:17:37;23.80;38.60
14101;DHT22;7127;49.372;8.166;2023-05-28T09:20:12;23.80;38.70
14101;DHT22;7127;49.372;8.166;2023-05-28T09:22:41;23.90;38.70
14101;DHT22;7127;49.372;8.166;2023-05-28T09:25:12;23.90;38.90
14101;DHT22;7127;49.372;8.166;2023-05-28T09:27:43;23.90;38.60
14101;DHT22;7127;49.372;8.166;2023-05-28T09:30:22;24.00;39.00
14101;DHT22;7127;49.372;8.166;2023-05-28T09:32:56;24.10;38.20
14101;DHT22;7127;49.372;8.166;2023-05-28T09:35:25;24.10;38.50
14101;DHT22;7127;49.372;8.166;2023-05-28T09:38:03;24.20;38.50
14101;DHT22;7127;49.372;8.166;2023-05-28T09:40:37;24.30;38.00
14101;DHT22;7127;49.372;8.166;2023-05-28T09:43:04;24.50;38.40
14101;DHT22;7127;49.372;8.166;2023-05-28T09:45:32;24.40;38.50
14101;DHT22;7127;49.372;8.166;2023-05-28T09:48:03;24.50;38.50
14101;DHT22;7127;49.372;8.166;2023-05-28T09:50:30;24.50;38.20
14101;DHT22;7127;49.372;8.166;2023-05-28T09:53:03;24.60;37.80
14101;DHT22;7127;49.372;8.166;2023-05-28T09:55:44;24.60;37.90
14101;DHT22;7127;49.372;8.166;2023-05-28T09:58:16;24.70;38.60
14101;DHT22;7127;49.372;8.166;2023-05-28T10:04:01;24.80;37.80
14101;DHT22;7127;49.372;8.166;2023-05-28T10:06:30;24.90;37.70
14101;DHT22;7127;49.372;8.166;2023-05-28T10:09:08;24.90;37.50
14101;DHT22;7127;49.372;8.166;2023-05-28T10:11:56;25.00;37.50
14101;DHT22;7127;49.372;8.166;2023-05-28T10:14:28;25.10;37.20
14101;DHT22;7127;49.372;8.166;2023-05-28T10:16:58;25.10;38.00
14101;DHT22;7127;49.372;8.166;2023-05-28T10:19:31;25.20;37.30
14101;DHT22;7127;49.372;8.166;2023-05-28T10:21:58;25.20;36.90
14101;DHT22;7127;49.372;8.166;2023-05-28T10:24:25;25.30;36.90
14101;DHT22;7127;49.372;8.166;2023-05-28T10:26:54;25.30;36.80
14101;DHT22;7127;49.372;8.166;2023-05-28T10:29:21;25.40;36.20
14101;DHT22;7127;49.372;8.166;2023-05-28T10:31:59;25.40;36.30
14101;DHT22;7127;49.372;8.166;2023-05-28T10:34:31;25.50;36.20
14101;DHT22;7127;49.372;8.166;2023-05-28T10:37:00;25.50;36.30
14101;DHT22;7127;49.372;8.166;2023-05-28T10:39:37;25.50;36.30
14101;DHT22;7127;49.372;8.166;2023-05-28T10:42:06;25.60;36.70
14101;DHT22;7127;49.372;8.166;2023-05-28T10:44:52;25.60;36.10
14101;DHT22;7127;49.372;8.166;2023-05-28T10:47:31;25.70;35.70
14101;DHT22;7127;49.372;8.166;2023-05-28T10:49:59;25.70;35.80
14101;DHT22;7127;49.372;8.166;2023-05-28T10:52:26;25.70;35.50
14101;DHT22;7127;49.372;8.166;2023-05-28T10:54:53;25.80;35.40
14101;DHT22;7127;49.372;8.166;2023-05-28T10:57:22;25.80;35.30
14101;DHT22;7127;49.372;8.166;2023-05-28T10:59:50;25.80;35.00
14101;DHT22;7127;49.372;8.166;2023-05-28T11:02:22;25.90;34.90
14101;DHT22;7127;49.372;8.166;2023-05-28T11:04:50;26.00;34.80
14101;DHT22;7127;49.372;8.166;2023-05-28T11:07:19;26.00;34.60
14101;DHT22;7127;49.372;8.166;2023-05-28T11:09:52;26.10;34.70
14101;DHT22;7127;49.372;8.166;2023-05-28T11:12:26;26.00;34.30
14101;DHT22;7127;49.372;8.166;2023-05-28T11:15:02;26.20;34.20
14101;DHT22;7127;49.372;8.166;2023-05-28T11:17:39;26.20;34.30
14101;DHT22;7127;49.372;8.166;2023-05-28T11:33:16;26.40;34.10
14101;DHT22;7127;49.372;8.166;2023-05-28T11:35:58;26.40;33.90
14101;DHT22;7127;49.372;8.166;2023-05-28T12:58:54;27.20;33.10
14101;DHT22;7127;49.372;8.166;2023-05-28T13:01:34;27.30;33.10
14101;DHT22;7127;49.372;8.166;2023-05-28T13:04:01;27.30;33.20
14101;DHT22;7127;49.372;8.166;2023-05-28T13:06:28;27.30;33.10
14101;DHT22;7127;49.372;8.166;2023-05-28T13:08:55;27.30;32.80
14101;DHT22;7127;49.372;8.166;2023-05-28T13:11:23;27.40;32.90
14101;DHT22;7127;49.372;8.166;2023-05-28T13:13:52;27.40;32.90
14101;DHT22;7127;49.372;8.166;2023-05-28T13:16:19;27.50;32.80
14101;DHT22;7127;49.372;8.166;2023-05-28T13:18:46;27.60;32.90
14101;DHT22;7127;49.372;8.166;2023-05-28T13:21:13;27.50;32.80
14101;DHT22;7127;49.372;8.166;2023-05-28T13:23:40;27.60;32.40
14101;DHT22;7127;49.372;8.166;2023-05-28T13:26:07;27.70;32.50
14101;DHT22;7127;49.372;8.166;2023-05-28T13:28:34;27.70;32.50
14101;DHT22;7127;49.372;8.166;2023-05-28T13:31:02;27.70;32.10
14101;DHT22;7127;49.372;8.166;2023-05-28T13:33:29;27.70;32.40
14101;DHT22;7127;49.372;8.166;2023-05-28T13:35:56;27.70;32.20
14101;DHT22;7127;49.372;8.166;2023-05-28T13:38:23;27.80;32.10
14101;DHT22;7127;49.372;8.166;2023-05-28T13:40:50;27.80;32.10
14101;DHT22;7127;49.372;8.166;2023-05-28T13:43:18;27.80;32.00
14101;DHT22;7127;49.372;8.166;2023-05-28T13:45:45;27.70;31.90
14101;DHT22;7127;49.372;8.166;2023-05-28T13:48:13;27.80;31.80
14101;DHT22;7127;49.372;8.166;2023-05-28T13:50:41;27.80;31.80
14101;DHT22;7127;49.372;8.166;2023-05-28T13:53:08;27.90;31.80
14101;DHT22;7127;49.372;8.166;2023-05-28T13:55:35;27.70;31.50
14101;DHT22;7127;49.372;8.166;2023-05-28T13:58:02;27.90;31.60
14101;DHT22;7127;49.372;8.166;2023-05-28T14:00:29;28.00;30.70
14101;DHT22;7127;49.372;8.166;2023-05-28T14:02:56;28.00;30.80
14101;DHT22;7127;49.372;8.166;2023-05-28T14:05:24;27.90;30.50
14101;DHT22;7127;49.372;8.166;2023-05-28T14:07:53;28.00;30.60
14101;DHT22;7127;49.372;8.166;2023-05-28T14:10:20;27.90;30.70
14101;DHT22;7127;49.372;8.166;2023-05-28T14:12:50;28.00;31.00
14101;DHT22;7127;49.372;8.166;2023-05-28T14:15:18;28.10;31.00
14101;DHT22;7127;49.372;8.166;2023-05-28T14:17:45;28.00;31.00
14101;DHT22;7127;49.372;8.166;2023-05-28T14:20:40;28.00;30.70
14101;DHT22;7127;49.372;8.166;2023-05-28T14:23:46;28.10;30.60
14101;DHT22;7127;49.372;8.166;2023-05-28T14:26:38;28.10;31.20
14101;DHT22;7127;49.372;8.166;2023-05-28T14:29:34;28.10;30.80
14101;DHT22;7127;49.372;8.166;2023-05-28T14:32:01;28.20;30.70
14101;DHT22;7127;49.372;8.166;2023-05-28T14:34:28;28.20;30.80
14101;DHT22;7127;49.372;8.166;2023-05-28T14:36:57;28.20;30.70
14101;DHT22;7127;49.372;8.166;2023-05-28T14:39:25;28.30;30.70
14101;DHT22;7127;49.372;8.166;2023-05-28T14:41:52;28.30;30.70
14101;DHT22;7127;49.372;8.166;2023-05-28T14:44:19;28.30;30.50
14101;DHT22;7127;49.372;8.166;2023-05-28T14:46:46;28.40;30.60
14101;DHT22;7127;49.372;8.166;2023-05-28T14:49:12;28.40;30.60
14101;DHT22;7127;49.372;8.166;2023-05-28T14:51:39;28.50;30.50
14101;DHT22;7127;49.372;8.166;2023-05-28T14:54:08;28.50;30.20
14101;DHT22;7127;49.372;8.166;2023-05-28T14:56:35;28.50;29.90
14101;DHT22;7127;49.372;8.166;2023-05-28T14:59:02;28.50;30.30
14101;DHT22;7127;49.372;8.166;2023-05-28T15:01:29;28.60;29.80
14101;DHT22;7127;49.372;8.166;2023-05-28T15:03:56;28.60;30.00
14101;DHT22;7127;49.372;8.166;2023-05-28T15:06:23;28.50;29.80
14101;DHT22;7127;49.372;8.166;2023-05-28T15:08:50;28.50;29.60
14101;DHT22;7127;49.372;8.166;2023-05-28T15:11:18;28.50;29.30
14101;DHT22;7127;49.372;8.166;2023-05-28T15:13:47;28.50;29.60
14101;DHT22;7127;49.372;8.166;2023-05-28T15:16:14;28.50;29.50
14101;DHT22;7127;49.372;8.166;2023-05-28T15:18:41;28.60;29.60
14101;DHT22;7127;49.372;8.166;2023-05-28T15:21:08;28.60;29.10
14101;DHT22;7127;49.372;8.166;2023-05-28T15:23:35;28.60;29.30
14101;DHT22;7127;49.372;8.166;2023-05-28T15:26:03;28.60;29.40
14101;DHT22;7127;49.372;8.166;2023-05-28T15:28:32;28.60;29.40
14101;DHT22;7127;49.372;8.166;2023-05-28T15:30:59;28.60;29.40
14101;DHT22;7127;49.372;8.166;2023-05-28T15:33:27;28.60;29.40
14101;DHT22;7127;49.372;8.166;2023-05-28T15:35:55;28.60;28.60
14101;DHT22;7127;49.372;8.166;2023-05-28T15:38:23;28.60;28.70
14101;DHT22;7127;49.372;8.166;2023-05-28T15:40:51;28.60;28.20
14101;DHT22;7127;49.372;8.166;2023-05-28T15:43:19;28.60;28.40
14101;DHT22;7127;49.372;8.166;2023-05-28T15:45:47;28.50;28.60
14101;DHT22;7127;49.372;8.166;2023-05-28T15:48:14;28.50;28.80
14101;DHT22;7127;49.372;8.166;2023-05-28T15:50:41;28.50;28.80
14101;DHT22;7127;49.372;8.166;2023-05-28T15:53:08;28.60;28.60
14101;DHT22;7127;49.372;8.166;2023-05-28T15:55:36;28.50;28.10
14101;DHT22;7127;49.372;8.166;2023-05-28T15:58:03;28.60;28.40
14101;DHT22;7127;49.372;8.166;2023-05-28T16:00:31;28.50;28.30
14101;DHT22;7127;49.372;8.166;2023-05-28T16:03:01;28.50;28.10
14101;DHT22;7127;49.372;8.166;2023-05-28T16:05:29;28.50;28.00
14101;DHT22;7127;49.372;8.166;2023-05-28T16:07:57;28.40;28.30
14101;DHT22;7127;49.372;8.166;2023-05-28T16:10:24;28.40;28.50
14101;DHT22;7127;49.372;8.166;2023-05-28T16:12:52;28.40;28.70
14101;DHT22;7127;49.372;8.166;2023-05-28T16:15:21;28.40;28.50
14101;DHT22;7127;49.372;8.166;2023-05-28T16:17:49;28.40;28.70
14101;DHT22;7127;49.372;8.166;2023-05-28T16:20:19;28.40;28.50
14101;DHT22;7127;49.372;8.166;2023-05-28T16:22:47;28.40;27.80
14101;DHT22;7127;49.372;8.166;2023-05-28T16:25:15;28.40;28.00
14101;DHT22;7127;49.372;8.166;2023-05-28T16:27:42;28.40;27.90
14101;DHT22;7127;49.372;8.166;2023-05-28T16:30:10;28.30;28.10
14101;DHT22;7127;49.372;8.166;2023-05-28T16:32:38;28.30;28.20
14101;DHT22;7127;49.372;8.166;2023-05-28T16:35:06;28.30;28.00
14101;DHT22;7127;49.372;8.166;2023-05-28T16:37:35;28.20;27.90
14101;DHT22;7127;49.372;8.166;2023-05-28T16:40:03;28.20;28.20
14101;DHT22;7127;49.372;8.166;2023-05-28T16:42:33;28.20;28.30
14101;DHT22;7127;49.372;8.166;2023-05-28T16:45:01;28.20;28.00
14101;DHT22;7127;49.372;8.166;2023-05-28T16:47:28;28.10;28.20
14101;DHT22;7127;49.372;8.166;2023-05-28T16:49:56;28.10;28.10
14101;DHT22;7127;49.372;8.166;2023-05-28T16:52:23;28.10;28.20
14101;DHT22;7127;49.372;8.166;2023-05-28T16:54:52;28.00;28.30
14101;DHT22;7127;49.372;8.166;2023-05-28T16:57:21;28.00;28.30
14101;DHT22;7127;49.372;8.166;2023-05-28T16:59:48;28.00;28.30
14101;DHT22;7127;49.372;8.166;2023-05-28T17:02:16;28.00;28.40
14101;DHT22;7127;49.372;8.166;2023-05-28T17:04:44;27.90;28.40
14101;DHT22;7127;49.372;8.166;2023-05-28T17:07:12;27.90;28.30
14101;DHT22;7127;49.372;8.166;2023-05-28T17:09:38;27.90;28.50
14101;DHT22;7127;49.372;8.166;2023-05-28T17:12:07;27.80;28.40
14101;DHT22;7127;49.372;8.166;2023-05-28T17:14:34;27.80;28.30
14101;DHT22;7127;49.372;8.166;2023-05-28T17:17:01;27.70;28.40
14101;DHT22;7127;49.372;8.166;2023-05-28T17:19:28;27.70;28.60
14101;DHT22;7127;49.372;8.166;2023-05-28T17:21:56;27.50;28.50
14101;DHT22;7127;49.372;8.166;2023-05-28T17:24:23;27.70;28.70
14101;DHT22;7127;49.372;8.166;2023-05-28T17:26:50;27.60;28.70
14101;DHT22;7127;49.372;8.166;2023-05-28T17:29:19;27.60;28.90